createdAt,value
2017-07-02T00:00:36.656Z,0
2017-07-02T00:01:17.169Z,0
2017-07-02T00:01:57.716Z,0
2017-07-02T00:02:38.233Z,0
2017-07-02T00:03:18.753Z,0
2017-07-02T00:03:59.271Z,0
2017-07-02T00:04:39.791Z,0
2017-07-02T00:05:20.308Z,0
2017-07-02T00:06:00.838Z,0
2017-07-02T00:06:41.351Z,0
2017-07-02T00:07:21.870Z,0
2017-07-02T00:08:02.386Z,0
2017-07-02T00:08:42.909Z,0
2017-07-02T00:09:23.418Z,0
2017-07-02T00:10:03.946Z,0
2017-07-02T00:10:44.541Z,0
2017-07-02T00:11:25.057Z,0
2017-07-02T00:12:05.571Z,0
2017-07-02T00:12:46.143Z,0
2017-07-02T00:13:26.667Z,0
2017-07-02T00:14:07.186Z,0
2017-07-02T00:14:47.710Z,0
2017-07-02T00:16:45.902Z,0
2017-07-02T00:17:26.429Z,0
2017-07-02T00:18:06.982Z,0
2017-07-02T00:18:47.487Z,0
2017-07-02T00:19:28.000Z,0
2017-07-02T00:20:08.520Z,0
2017-07-02T00:20:49.030Z,0
2017-07-02T00:21:29.560Z,0
2017-07-02T00:22:10.082Z,0
2017-07-02T00:22:50.613Z,0
2017-07-02T00:23:31.115Z,0
2017-07-02T00:24:11.638Z,0
2017-07-02T00:24:52.164Z,0
2017-07-02T00:25:32.684Z,0
2017-07-02T00:26:13.201Z,0
2017-07-02T00:26:53.723Z,0
2017-07-02T00:27:34.258Z,0
2017-07-02T00:28:14.776Z,0
2017-07-02T00:28:55.289Z,0
2017-07-02T00:29:35.803Z,0
2017-07-02T00:30:16.330Z,0
2017-07-02T00:30:56.846Z,0
2017-07-02T00:31:37.367Z,0
2017-07-02T00:32:17.869Z,0
2017-07-02T00:32:58.401Z,0
2017-07-02T00:33:38.954Z,0
2017-07-02T00:34:19.472Z,0
2017-07-02T00:34:59.979Z,0
2017-07-02T00:35:40.498Z,0
2017-07-02T00:36:21.007Z,0
2017-07-02T00:37:01.518Z,0
2017-07-02T00:37:42.045Z,0
2017-07-02T00:38:22.576Z,0
2017-07-02T00:39:03.102Z,0
2017-07-02T00:39:43.620Z,0
2017-07-02T00:40:24.136Z,0
2017-07-02T00:41:04.667Z,0
2017-07-02T00:41:45.192Z,0
2017-07-02T00:42:25.705Z,0
2017-07-02T00:43:06.228Z,0
2017-07-02T00:43:46.750Z,0
2017-07-02T00:44:27.281Z,0
2017-07-02T00:45:07.802Z,0
2017-07-02T00:45:48.313Z,0
2017-07-02T00:46:28.830Z,0
2017-07-02T00:47:09.350Z,0
2017-07-02T00:47:49.869Z,0
2017-07-02T00:48:30.390Z,0
2017-07-02T00:49:10.903Z,0
2017-07-02T00:49:51.410Z,0
2017-07-02T00:50:31.913Z,0
2017-07-02T00:51:12.465Z,0
2017-07-02T00:51:52.963Z,0
2017-07-02T00:52:33.450Z,0
2017-07-02T00:53:13.941Z,0
2017-07-02T00:53:54.481Z,0
2017-07-02T00:54:34.970Z,0
2017-07-02T00:56:53.456Z,0
2017-07-02T00:57:33.960Z,0
2017-07-02T00:58:14.477Z,0
2017-07-02T00:58:55.007Z,0
2017-07-02T00:59:35.549Z,0
2017-07-02T01:00:16.064Z,0
2017-07-02T01:00:56.575Z,0
2017-07-02T01:01:37.070Z,0
2017-07-02T01:02:17.589Z,0
2017-07-02T01:02:58.069Z,0
2017-07-02T01:03:38.551Z,0
2017-07-02T01:04:19.060Z,0
2017-07-02T01:04:59.555Z,0
2017-07-02T01:05:40.063Z,0
2017-07-02T01:06:20.623Z,0
2017-07-02T01:07:01.157Z,0
2017-07-02T01:07:41.620Z,0
2017-07-02T01:08:22.224Z,0
2017-07-02T01:09:02.640Z,0
2017-07-02T01:09:43.157Z,0
2017-07-02T01:10:23.665Z,0
2017-07-02T01:11:04.159Z,0
2017-07-02T01:11:44.700Z,0
2017-07-02T01:12:25.260Z,0
2017-07-02T01:13:05.763Z,0
2017-07-02T01:13:46.346Z,0
2017-07-02T01:14:26.823Z,0
2017-07-02T01:15:07.394Z,0
2017-07-02T01:15:47.871Z,0
2017-07-02T01:16:28.411Z,0
2017-07-02T01:17:08.922Z,0
2017-07-02T01:17:49.422Z,0
2017-07-02T01:18:29.893Z,0
2017-07-02T01:19:10.378Z,0
2017-07-02T01:19:50.936Z,0
2017-07-02T01:20:31.408Z,0
2017-07-02T01:21:11.939Z,0
2017-07-02T01:21:52.537Z,0
2017-07-02T01:22:33.044Z,0
2017-07-02T01:23:13.564Z,0
2017-07-02T01:23:54.082Z,0
2017-07-02T01:24:34.602Z,0
2017-07-02T01:25:15.085Z,0
2017-07-02T01:25:55.601Z,0
2017-07-02T01:26:36.127Z,0
2017-07-02T01:27:16.736Z,0
2017-07-02T01:27:57.275Z,0
2017-07-02T01:28:37.832Z,0
2017-07-02T01:29:18.352Z,0
2017-07-02T01:29:58.840Z,0
2017-07-02T01:30:39.371Z,0
2017-07-02T01:31:19.870Z,0
2017-07-02T01:32:00.397Z,0
2017-07-02T01:32:40.941Z,0
2017-07-02T01:33:21.436Z,0
2017-07-02T01:34:01.936Z,0
2017-07-02T01:34:42.555Z,0
2017-07-02T01:35:23.104Z,0
2017-07-02T01:36:03.588Z,0
2017-07-02T01:36:44.131Z,0
2017-07-02T01:37:24.614Z,0
2017-07-02T01:38:05.104Z,0
2017-07-02T01:38:45.627Z,0
2017-07-02T01:39:26.138Z,0
2017-07-02T01:40:06.653Z,0
2017-07-02T01:40:47.177Z,0
2017-07-02T01:41:27.630Z,0
2017-07-02T01:42:08.169Z,0
2017-07-02T01:42:48.639Z,0
2017-07-02T01:43:29.147Z,0
2017-07-02T01:44:09.652Z,0
2017-07-02T01:44:50.126Z,0
2017-07-02T01:45:30.644Z,0
2017-07-02T01:46:11.150Z,0
2017-07-02T01:46:51.763Z,0
2017-07-02T01:47:32.237Z,0
2017-07-02T01:48:12.692Z,0
2017-07-02T01:48:53.183Z,0
2017-07-02T01:49:34.319Z,0
2017-07-02T01:50:14.809Z,0
2017-07-02T01:50:55.288Z,0
2017-07-02T01:51:35.737Z,0
2017-07-02T01:52:16.295Z,0
2017-07-02T01:52:56.787Z,0
2017-07-02T01:53:37.237Z,0
2017-07-02T01:54:17.759Z,0
2017-07-02T01:54:58.285Z,0
2017-07-02T01:55:38.809Z,0
2017-07-02T01:56:19.234Z,0
2017-07-02T01:56:59.746Z,0
2017-07-02T01:57:40.253Z,0
2017-07-02T01:58:20.738Z,0
2017-07-02T01:59:01.250Z,0
2017-07-02T01:59:41.757Z,0
2017-07-02T02:00:22.302Z,0
2017-07-02T02:01:02.838Z,0
2017-07-02T02:01:43.318Z,0
2017-07-02T02:02:23.792Z,0
2017-07-02T02:03:04.286Z,0
2017-07-02T02:03:44.765Z,0
2017-07-02T02:04:25.391Z,0
2017-07-02T02:05:05.794Z,0
2017-07-02T02:05:46.307Z,0
2017-07-02T02:06:26.822Z,0
2017-07-02T02:07:07.296Z,0
2017-07-02T02:07:47.777Z,0
2017-07-02T02:08:28.275Z,0
2017-07-02T02:09:08.795Z,0
2017-07-02T02:09:49.375Z,0
2017-07-02T02:10:29.802Z,0
2017-07-02T02:11:10.319Z,0
2017-07-02T02:11:50.838Z,0
2017-07-02T02:12:31.385Z,0
2017-07-02T02:13:11.840Z,0
2017-07-02T02:13:52.337Z,0
2017-07-02T02:14:32.850Z,0
2017-07-02T02:15:13.408Z,0
2017-07-02T02:15:53.865Z,0
2017-07-02T02:16:34.377Z,0
2017-07-02T02:17:14.893Z,0
2017-07-02T02:17:55.404Z,0
2017-07-02T02:18:35.894Z,0
2017-07-02T02:19:16.436Z,0
2017-07-02T02:19:56.982Z,0
2017-07-02T02:20:37.487Z,0
2017-07-02T02:21:18.022Z,0
2017-07-02T02:21:58.491Z,0
2017-07-02T02:22:39.034Z,0
2017-07-02T02:23:19.542Z,0
2017-07-02T02:24:00.079Z,0
2017-07-02T02:25:58.367Z,0
2017-07-02T02:26:38.895Z,0
2017-07-02T02:27:19.418Z,0
2017-07-02T02:27:59.938Z,0
2017-07-02T02:28:40.441Z,0
2017-07-02T02:29:20.969Z,0
2017-07-02T02:30:01.547Z,0
2017-07-02T02:30:41.978Z,0
2017-07-02T02:31:22.488Z,0
2017-07-02T02:32:02.993Z,0
2017-07-02T02:32:43.521Z,0
2017-07-02T02:33:24.037Z,0
2017-07-02T02:34:04.553Z,0
2017-07-02T02:34:45.071Z,0
2017-07-02T02:35:25.592Z,0
2017-07-02T02:36:06.108Z,0
2017-07-02T02:36:46.629Z,0
2017-07-02T02:37:27.141Z,0
2017-07-02T02:38:07.633Z,0
2017-07-02T02:38:48.121Z,0
2017-07-02T02:39:28.731Z,0
2017-07-02T02:40:09.145Z,0
2017-07-02T02:40:49.651Z,0
2017-07-02T02:41:30.257Z,0
2017-07-02T02:42:10.712Z,0
2017-07-02T02:42:51.257Z,0
2017-07-02T02:43:31.738Z,0
2017-07-02T02:44:12.224Z,0
2017-07-02T02:44:52.712Z,0
2017-07-02T02:47:05.989Z,0
2017-07-02T02:47:46.536Z,0
2017-07-02T02:48:27.036Z,0
2017-07-02T02:49:07.561Z,0
2017-07-02T02:49:48.159Z,0
2017-07-02T02:50:28.697Z,0
2017-07-02T02:51:09.232Z,0
2017-07-02T02:51:49.761Z,0
2017-07-02T02:52:30.279Z,0
2017-07-02T02:53:10.767Z,0
2017-07-02T02:53:51.328Z,0
2017-07-02T02:54:31.800Z,0
2017-07-02T02:55:12.279Z,0
2017-07-02T02:55:52.800Z,0
2017-07-02T02:56:33.326Z,0
2017-07-02T02:57:13.960Z,0
2017-07-02T02:57:54.372Z,0
2017-07-02T02:58:34.891Z,0
2017-07-02T02:59:15.392Z,0
2017-07-02T02:59:55.879Z,0
2017-07-02T03:00:36.391Z,0
2017-07-02T03:01:16.904Z,0
2017-07-02T03:01:57.451Z,0
2017-07-02T03:02:37.956Z,0
2017-07-02T03:03:18.528Z,0
2017-07-02T03:03:59.056Z,4
2017-07-02T03:04:39.556Z,4
2017-07-02T03:05:20.080Z,0
2017-07-02T03:06:00.617Z,4
2017-07-02T03:06:41.284Z,4
2017-07-02T03:07:21.846Z,4
2017-07-02T03:08:02.414Z,4
2017-07-02T03:08:42.936Z,0
2017-07-02T03:09:23.455Z,4
2017-07-02T03:10:03.975Z,4
2017-07-02T03:10:44.505Z,4
2017-07-02T03:11:25.051Z,8
2017-07-02T03:12:05.572Z,4
2017-07-02T03:12:46.090Z,4
2017-07-02T03:13:26.640Z,8
2017-07-02T03:14:07.157Z,8
2017-07-02T03:14:47.713Z,8
2017-07-02T03:15:28.241Z,8
2017-07-02T03:16:08.771Z,8
2017-07-02T03:16:49.298Z,8
2017-07-02T03:17:29.825Z,8
2017-07-02T03:18:10.445Z,12
2017-07-02T03:18:50.968Z,12
2017-07-02T03:19:31.486Z,12
2017-07-02T03:20:12.017Z,12
2017-07-02T03:20:52.544Z,12
2017-07-02T03:21:33.065Z,12
2017-07-02T03:22:13.579Z,16
2017-07-02T03:22:54.117Z,20
2017-07-02T03:23:34.643Z,20
2017-07-02T03:24:15.162Z,24
2017-07-02T03:24:55.680Z,24
2017-07-02T03:25:36.200Z,28
2017-07-02T03:26:16.733Z,28
2017-07-02T03:26:57.240Z,28
2017-07-02T03:27:37.763Z,32
2017-07-02T03:28:18.286Z,40
2017-07-02T03:28:58.805Z,40
2017-07-02T03:29:39.325Z,40
2017-07-02T03:30:19.843Z,36
2017-07-02T03:31:00.361Z,40
2017-07-02T03:31:40.884Z,40
2017-07-02T03:32:21.402Z,44
2017-07-02T03:33:01.920Z,44
2017-07-02T03:33:42.437Z,48
2017-07-02T03:34:22.966Z,56
2017-07-02T03:35:03.478Z,64
2017-07-02T03:35:44.006Z,80
2017-07-02T03:36:24.525Z,80
2017-07-02T03:37:05.047Z,88
2017-07-02T03:37:45.579Z,88
2017-07-02T03:38:26.111Z,88
2017-07-02T03:39:06.630Z,96
2017-07-02T03:39:47.160Z,100
2017-07-02T03:40:27.696Z,104
2017-07-02T03:41:08.227Z,108
2017-07-02T03:41:48.755Z,120
2017-07-02T03:42:29.283Z,128
2017-07-02T03:43:09.820Z,128
2017-07-02T03:43:50.336Z,124
2017-07-02T03:44:30.861Z,132
2017-07-02T03:45:11.391Z,136
2017-07-02T03:45:51.921Z,132
2017-07-02T03:46:32.450Z,136
2017-07-02T03:47:12.971Z,132
2017-07-02T03:47:53.516Z,124
2017-07-02T03:48:34.030Z,124
2017-07-02T03:49:14.559Z,124
2017-07-02T03:49:55.076Z,128
2017-07-02T03:50:35.599Z,132
2017-07-02T03:51:16.128Z,140
2017-07-02T03:51:56.650Z,152
2017-07-02T03:52:37.184Z,156
2017-07-02T03:53:17.716Z,164
2017-07-02T03:53:58.280Z,172
2017-07-02T03:54:38.773Z,184
2017-07-02T03:55:19.290Z,188
2017-07-02T03:55:59.814Z,204
2017-07-02T03:56:40.333Z,220
2017-07-02T03:57:20.856Z,244
2017-07-02T03:58:01.373Z,252
2017-07-02T03:58:41.889Z,260
2017-07-02T03:59:22.414Z,264
2017-07-02T04:00:02.929Z,272
2017-07-02T04:00:43.460Z,272
2017-07-02T04:01:23.992Z,280
2017-07-02T04:02:04.496Z,280
2017-07-02T04:02:45.002Z,280
2017-07-02T04:03:25.525Z,268
2017-07-02T04:04:06.047Z,240
2017-07-02T04:04:46.559Z,224
2017-07-02T04:05:27.083Z,236
2017-07-02T04:06:07.621Z,252
2017-07-02T04:06:48.190Z,252
2017-07-02T04:07:28.708Z,272
2017-07-02T04:08:09.232Z,300
2017-07-02T04:08:49.735Z,312
2017-07-02T04:09:30.253Z,340
2017-07-02T04:10:10.768Z,348
2017-07-02T04:10:51.287Z,340
2017-07-02T04:11:31.815Z,356
2017-07-02T04:12:12.347Z,364
2017-07-02T04:12:52.870Z,392
2017-07-02T04:13:33.390Z,428
2017-07-02T04:14:13.917Z,444
2017-07-02T04:14:54.418Z,460
2017-07-02T04:15:34.953Z,484
2017-07-02T04:16:15.473Z,512
2017-07-02T04:18:29.806Z,552
2017-07-02T04:19:10.387Z,560
2017-07-02T04:19:50.970Z,552
2017-07-02T04:20:31.535Z,556
2017-07-02T04:21:12.049Z,564
2017-07-02T04:21:52.609Z,548
2017-07-02T04:22:33.196Z,536
2017-07-02T04:23:13.682Z,560
2017-07-02T04:23:54.180Z,560
2017-07-02T04:24:34.724Z,576
2017-07-02T04:25:15.248Z,620
2017-07-02T04:25:55.853Z,644
2017-07-02T04:26:36.366Z,636
2017-07-02T04:27:16.868Z,676
2017-07-02T04:27:57.366Z,708
2017-07-02T04:28:37.938Z,756
2017-07-02T04:29:18.436Z,780
2017-07-02T04:29:58.923Z,764
2017-07-02T04:30:39.453Z,796
2017-07-02T04:31:19.977Z,816
2017-07-02T04:32:00.558Z,812
2017-07-02T04:32:41.106Z,828
2017-07-02T04:33:21.654Z,864
2017-07-02T04:34:02.108Z,780
2017-07-02T04:34:42.626Z,828
2017-07-02T04:35:23.181Z,864
2017-07-02T04:36:03.720Z,936
2017-07-02T04:36:44.197Z,968
2017-07-02T04:37:24.725Z,964
2017-07-02T04:38:05.254Z,984
2017-07-02T04:40:18.538Z,972
2017-07-02T04:40:59.168Z,952
2017-07-02T04:41:39.571Z,960
2017-07-02T04:42:20.046Z,932
2017-07-02T04:43:00.496Z,964
2017-07-02T04:43:41.003Z,976
2017-07-02T04:44:21.504Z,980
2017-07-02T04:45:02.030Z,1024
2017-07-02T04:45:42.532Z,1072
2017-07-02T04:46:23.078Z,1100
2017-07-02T04:47:03.622Z,1196
2017-07-02T04:47:44.130Z,1272
2017-07-02T04:48:24.668Z,1224
2017-07-02T04:49:05.173Z,1268
2017-07-02T04:49:45.627Z,1208
2017-07-02T04:50:26.146Z,1160
2017-07-02T04:51:06.661Z,1132
2017-07-02T04:51:47.316Z,1088
2017-07-02T04:52:27.907Z,1112
2017-07-02T04:53:08.342Z,1056
2017-07-02T04:53:48.847Z,1024
2017-07-02T04:54:29.403Z,1020
2017-07-02T04:55:09.932Z,1084
2017-07-02T04:55:50.412Z,1168
2017-07-02T04:56:30.942Z,1220
2017-07-02T04:57:11.454Z,1128
2017-07-02T04:57:51.942Z,1120
2017-07-02T04:58:32.452Z,1060
2017-07-02T04:59:12.934Z,1012
2017-07-02T04:59:53.434Z,1008
2017-07-02T05:00:33.909Z,1080
2017-07-02T05:01:14.414Z,1028
2017-07-02T05:01:54.926Z,1000
2017-07-02T05:02:35.432Z,1020
2017-07-02T05:03:15.931Z,992
2017-07-02T05:03:56.468Z,940
2017-07-02T05:04:36.940Z,868
2017-07-02T05:05:17.455Z,860
2017-07-02T05:05:57.910Z,852
2017-07-02T05:06:38.430Z,820
2017-07-02T05:07:18.946Z,788
2017-07-02T05:07:59.449Z,776
2017-07-02T05:08:39.917Z,772
2017-07-02T05:09:20.415Z,804
2017-07-02T05:10:00.918Z,844
2017-07-02T05:10:41.431Z,836
2017-07-02T05:11:21.923Z,852
2017-07-02T05:12:02.484Z,868
2017-07-02T05:12:42.933Z,868
2017-07-02T05:13:23.440Z,872
2017-07-02T05:14:04.065Z,876
2017-07-02T05:14:44.458Z,900
2017-07-02T05:15:24.912Z,892
2017-07-02T05:16:05.411Z,888
2017-07-02T05:16:45.915Z,860
2017-07-02T05:17:26.442Z,900
2017-07-02T05:18:06.952Z,932
2017-07-02T05:18:47.447Z,984
2017-07-02T05:19:28.031Z,1008
2017-07-02T05:20:08.508Z,1032
2017-07-02T05:20:49.067Z,1064
2017-07-02T05:21:29.547Z,1100
2017-07-02T05:22:10.038Z,1132
2017-07-02T05:22:50.773Z,1136
2017-07-02T05:23:31.280Z,1100
2017-07-02T05:24:11.767Z,1068
2017-07-02T05:24:52.301Z,1072
2017-07-02T05:25:32.820Z,1108
2017-07-02T05:26:13.307Z,1128
2017-07-02T05:26:53.769Z,1168
2017-07-02T05:27:34.301Z,1148
2017-07-02T05:28:14.846Z,1144
2017-07-02T05:28:55.336Z,1184
2017-07-02T05:29:35.874Z,1184
2017-07-02T05:30:16.445Z,1204
2017-07-02T05:30:56.903Z,1212
2017-07-02T05:31:37.400Z,1304
2017-07-02T05:32:17.900Z,1304
2017-07-02T05:32:58.432Z,1400
2017-07-02T05:33:38.973Z,1456
2017-07-02T05:34:19.629Z,1604
2017-07-02T05:35:00.100Z,1812
2017-07-02T05:35:40.607Z,1844
2017-07-02T05:36:21.270Z,1896
2017-07-02T05:37:01.776Z,2024
2017-07-02T05:37:42.283Z,2204
2017-07-02T05:38:22.742Z,2372
2017-07-02T05:39:03.287Z,2496
2017-07-02T05:39:43.859Z,2488
2017-07-02T05:40:24.379Z,2568
2017-07-02T05:41:04.888Z,2736
2017-07-02T05:41:45.464Z,2868
2017-07-02T05:42:25.955Z,3000
2017-07-02T05:43:06.477Z,3132
2017-07-02T05:43:47.006Z,3244
2017-07-02T05:44:27.585Z,3720
2017-07-02T05:45:08.039Z,5224
2017-07-02T05:45:48.522Z,6420
2017-07-02T05:46:29.030Z,6312
2017-07-02T05:47:10.879Z,3752
2017-07-02T05:47:53.921Z,3144
2017-07-02T05:48:34.472Z,2932
2017-07-02T05:49:14.938Z,2680
2017-07-02T05:49:55.507Z,2396
2017-07-02T05:50:36.055Z,2300
2017-07-02T05:51:16.518Z,2224
2017-07-02T05:51:57.011Z,2112
2017-07-02T05:52:37.514Z,2184
2017-07-02T05:53:18.478Z,2632
2017-07-02T05:55:37.782Z,2700
2017-07-02T05:56:18.279Z,2752
2017-07-02T05:56:58.777Z,2912
2017-07-02T05:57:39.251Z,2968
2017-07-02T05:58:19.743Z,3000
2017-07-02T05:59:00.271Z,3344
2017-07-02T05:59:40.784Z,3196
2017-07-02T06:00:21.259Z,3124
2017-07-02T06:01:01.884Z,2980
2017-07-02T06:01:42.427Z,3132
2017-07-02T06:02:22.987Z,2960
2017-07-02T06:03:04.393Z,3088
2017-07-02T06:03:44.908Z,3124
2017-07-02T06:04:25.385Z,3188
2017-07-02T06:05:05.900Z,3056
2017-07-02T06:05:47.197Z,3088
2017-07-02T06:06:27.709Z,3272
2017-07-02T06:07:08.239Z,3148
2017-07-02T06:07:49.094Z,3156
2017-07-02T06:08:29.579Z,3172
2017-07-02T06:09:10.181Z,3348
2017-07-02T06:09:51.251Z,3388
2017-07-02T06:10:31.954Z,3316
2017-07-02T06:12:30.121Z,2996
2017-07-02T06:13:10.621Z,3028
2017-07-02T06:13:52.499Z,2936
2017-07-02T06:14:34.092Z,3044
2017-07-02T06:15:14.603Z,3188
2017-07-02T06:15:55.098Z,3260
2017-07-02T06:16:35.779Z,3348
2017-07-02T06:17:16.243Z,3664
2017-07-02T06:17:57.502Z,3540
2017-07-02T06:18:38.013Z,3132
2017-07-02T06:19:18.530Z,3148
2017-07-02T06:19:59.005Z,3124
2017-07-02T06:20:39.483Z,3080
2017-07-02T06:21:20.146Z,3012
2017-07-02T06:22:00.554Z,3080
2017-07-02T06:22:41.070Z,2852
2017-07-02T06:23:21.744Z,2700
2017-07-02T06:24:02.172Z,2532
2017-07-02T06:24:42.996Z,2496
2017-07-02T06:25:23.569Z,2552
2017-07-02T06:26:04.152Z,2564
2017-07-02T06:26:44.428Z,2488
2017-07-02T06:27:24.915Z,2304
2017-07-02T06:28:05.567Z,2128
2017-07-02T06:28:45.928Z,2196
2017-07-02T06:29:26.737Z,2384
2017-07-02T06:30:07.112Z,2244
2017-07-02T06:30:47.779Z,2352
2017-07-02T06:31:28.266Z,2596
2017-07-02T06:32:08.957Z,2672
2017-07-02T06:32:49.550Z,2708
2017-07-02T06:33:30.063Z,2504
2017-07-02T06:34:10.513Z,2580
2017-07-02T06:34:51.056Z,2624
2017-07-02T06:35:31.522Z,2732
2017-07-02T06:36:12.340Z,2960
2017-07-02T06:36:52.855Z,3216
2017-07-02T06:37:33.329Z,3336
2017-07-02T06:38:13.921Z,3372
2017-07-02T06:38:54.621Z,3380
2017-07-02T06:39:35.443Z,3264
2017-07-02T06:40:16.131Z,3024
2017-07-02T06:40:57.120Z,2760
2017-07-02T06:41:37.597Z,2548
2017-07-02T06:42:18.059Z,2448
2017-07-02T06:42:58.606Z,2324
2017-07-02T06:43:39.129Z,2140
2017-07-02T06:44:19.799Z,2032
2017-07-02T06:45:00.445Z,1944
2017-07-02T06:45:40.862Z,1988
2017-07-02T06:46:21.454Z,1892
2017-07-02T06:47:01.940Z,1696
2017-07-02T06:47:42.514Z,1756
2017-07-02T06:48:23.205Z,1888
2017-07-02T06:49:03.695Z,1884
2017-07-02T06:49:44.249Z,1736
2017-07-02T06:50:24.720Z,1828
2017-07-02T06:51:05.476Z,1868
2017-07-02T06:51:46.005Z,1908
2017-07-02T06:52:26.509Z,1776
2017-07-02T06:53:07.013Z,1924
2017-07-02T06:53:47.536Z,2016
2017-07-02T06:54:28.041Z,1908
2017-07-02T06:55:08.608Z,2076
2017-07-02T06:55:49.310Z,2124
2017-07-02T06:56:29.979Z,2224
2017-07-02T06:57:10.504Z,2196
2017-07-02T06:57:50.995Z,2212
2017-07-02T06:58:31.595Z,1988
2017-07-02T06:59:12.113Z,1692
2017-07-02T06:59:52.703Z,1552
2017-07-02T07:00:33.210Z,1412
2017-07-02T07:01:13.979Z,1580
2017-07-02T07:01:54.622Z,1740
2017-07-02T07:02:35.202Z,1664
2017-07-02T07:03:15.544Z,1620
2017-07-02T07:03:56.218Z,1560
2017-07-02T07:05:55.549Z,1336
2017-07-02T07:06:36.044Z,1432
2017-07-02T07:07:16.587Z,1396
2017-07-02T07:07:57.108Z,1348
2017-07-02T07:08:37.699Z,1340
2017-07-02T07:09:18.171Z,1348
2017-07-02T07:09:58.724Z,1324
2017-07-02T07:10:39.258Z,1288
2017-07-02T07:11:19.757Z,1392
2017-07-02T07:12:00.280Z,1552
2017-07-02T07:12:40.812Z,1692
2017-07-02T07:13:21.294Z,1832
2017-07-02T07:14:01.840Z,1916
2017-07-02T07:14:42.375Z,2016
2017-07-02T07:15:22.918Z,1952
2017-07-02T07:16:03.414Z,1832
2017-07-02T07:16:43.931Z,1836
2017-07-02T07:17:24.398Z,1944
2017-07-02T07:18:04.903Z,2136
2017-07-02T07:18:45.391Z,2428
2017-07-02T07:19:26.029Z,2684
2017-07-02T07:20:06.490Z,2820
2017-07-02T07:20:47.019Z,3036
2017-07-02T07:21:27.506Z,3092
2017-07-02T07:22:08.163Z,3120
2017-07-02T07:22:48.626Z,3148
2017-07-02T07:23:29.083Z,3124
2017-07-02T07:24:09.643Z,3012
2017-07-02T07:24:50.255Z,2832
2017-07-02T07:25:30.717Z,2664
2017-07-02T07:26:11.190Z,2516
2017-07-02T07:26:51.656Z,2344
2017-07-02T07:27:32.158Z,2308
2017-07-02T07:28:12.799Z,2316
2017-07-02T07:28:53.468Z,2368
2017-07-02T07:29:34.190Z,2376
2017-07-02T07:30:14.477Z,2344
2017-07-02T07:30:54.954Z,2312
2017-07-02T07:31:35.479Z,2280
2017-07-02T07:32:15.992Z,2264
2017-07-02T07:32:56.584Z,2280
2017-07-02T07:33:37.242Z,2308
2017-07-02T07:34:17.875Z,2344
2017-07-02T07:34:58.363Z,2356
2017-07-02T07:35:38.844Z,2356
2017-07-02T07:36:19.334Z,2380
2017-07-02T07:36:59.831Z,2412
2017-07-02T07:37:40.318Z,2440
2017-07-02T07:38:20.814Z,2436
2017-07-02T07:39:01.402Z,2428
2017-07-02T07:39:41.872Z,2440
2017-07-02T07:40:22.329Z,2468
2017-07-02T07:41:02.863Z,2468
2017-07-02T07:41:43.404Z,2484
2017-07-02T07:42:23.808Z,2500
2017-07-02T07:43:04.323Z,2512
2017-07-02T07:45:03.734Z,2336
2017-07-02T07:45:44.198Z,2364
2017-07-02T07:46:24.735Z,2316
2017-07-02T07:47:05.293Z,2252
2017-07-02T07:47:45.724Z,2100
2017-07-02T07:48:26.846Z,1968
2017-07-02T07:49:06.710Z,1900
2017-07-02T07:49:47.221Z,1876
2017-07-02T07:50:27.749Z,1848
2017-07-02T07:51:08.243Z,1880
2017-07-02T07:51:48.783Z,1888
2017-07-02T07:52:29.304Z,1868
2017-07-02T07:54:44.619Z,1848
2017-07-02T07:56:58.321Z,1932
2017-07-02T07:57:38.839Z,1944
2017-07-02T07:58:19.346Z,1940
2017-07-02T07:58:59.793Z,2080
2017-07-02T07:59:40.556Z,2168
2017-07-02T08:00:21.390Z,2228
2017-07-02T08:01:01.885Z,2280
2017-07-02T08:01:42.622Z,2336
2017-07-02T08:02:22.942Z,2372
2017-07-02T08:03:03.426Z,2448
2017-07-02T08:03:44.048Z,2504
2017-07-02T08:04:24.663Z,2548
2017-07-02T08:05:05.717Z,2644
2017-07-02T08:05:46.128Z,2712
2017-07-02T08:06:26.702Z,2856
2017-07-02T08:07:07.144Z,2888
2017-07-02T08:07:47.604Z,2912
2017-07-02T08:08:28.147Z,3016
2017-07-02T08:09:08.797Z,3008
2017-07-02T08:09:49.188Z,3120
2017-07-02T08:10:29.773Z,3164
2017-07-02T08:11:10.280Z,3232
2017-07-02T08:11:50.950Z,3280
2017-07-02T08:12:31.336Z,3320
2017-07-02T08:13:11.825Z,3488
2017-07-02T08:13:52.304Z,3656
2017-07-02T08:14:32.823Z,3788
2017-07-02T08:15:13.446Z,3808
2017-07-02T08:15:53.947Z,3972
2017-07-02T08:16:34.433Z,3840
2017-07-02T08:17:14.911Z,3892
2017-07-02T08:17:55.506Z,3832
2017-07-02T08:18:35.981Z,3708
2017-07-02T08:19:16.688Z,3748
2017-07-02T08:19:56.981Z,3968
2017-07-02T08:20:38.009Z,3912
2017-07-02T08:21:18.715Z,3660
2017-07-02T08:21:59.223Z,3624
2017-07-02T08:22:39.824Z,4268
2017-07-02T08:23:20.279Z,4964
2017-07-02T08:24:00.793Z,5088
2017-07-02T08:24:41.276Z,5120
2017-07-02T08:25:21.782Z,5092
2017-07-02T08:26:02.281Z,4988
2017-07-02T08:26:42.768Z,5212
2017-07-02T08:27:23.227Z,4788
2017-07-02T08:28:03.711Z,4204
2017-07-02T08:28:44.227Z,4540
2017-07-02T08:29:24.799Z,5040
2017-07-02T08:30:05.836Z,4984
2017-07-02T08:30:46.678Z,4548
2017-07-02T08:31:27.177Z,4108
2017-07-02T08:32:07.712Z,4264
2017-07-02T08:32:48.267Z,4528
2017-07-02T08:33:28.753Z,4800
2017-07-02T08:34:09.271Z,5352
2017-07-02T08:34:49.714Z,5540
2017-07-02T08:35:30.244Z,5132
2017-07-02T08:36:10.797Z,5028
2017-07-02T08:36:51.812Z,4700
2017-07-02T08:37:32.628Z,4484
2017-07-02T08:38:13.169Z,4424
2017-07-02T08:38:53.712Z,4244
2017-07-02T08:39:34.201Z,4356
2017-07-02T08:40:14.940Z,4508
2017-07-02T08:40:55.187Z,4672
2017-07-02T08:41:35.663Z,4876
2017-07-02T08:42:16.167Z,5040
2017-07-02T08:42:56.751Z,5036
2017-07-02T08:43:37.184Z,4960
2017-07-02T08:44:17.744Z,4944
2017-07-02T08:44:58.267Z,4892
2017-07-02T08:45:38.725Z,4832
2017-07-02T08:46:19.205Z,4740
2017-07-02T08:46:59.708Z,5016
2017-07-02T08:47:40.356Z,5208
2017-07-02T08:48:20.754Z,5264
2017-07-02T08:49:01.401Z,5240
2017-07-02T08:49:41.780Z,5496
2017-07-02T08:50:22.264Z,5652
2017-07-02T08:51:02.825Z,6220
2017-07-02T08:51:43.452Z,6084
2017-07-02T08:52:24.539Z,5920
2017-07-02T08:53:04.978Z,5772
2017-07-02T08:53:45.489Z,5164
2017-07-02T08:54:25.980Z,5680
2017-07-02T08:55:06.440Z,7816
2017-07-02T08:55:47.036Z,8232
2017-07-02T08:56:27.529Z,7920
2017-07-02T08:57:07.926Z,7092
2017-07-02T08:57:48.371Z,6560
2017-07-02T08:58:28.973Z,6360
2017-07-02T08:59:09.441Z,7408
2017-07-02T08:59:50.046Z,9256
2017-07-02T09:00:30.589Z,10716
2017-07-02T09:01:11.072Z,11192
2017-07-02T09:01:51.537Z,11424
2017-07-02T09:02:32.054Z,10496
2017-07-02T09:03:12.555Z,9268
2017-07-02T09:03:53.214Z,8852
2017-07-02T09:04:33.878Z,9104
2017-07-02T09:05:14.698Z,8300
2017-07-02T09:05:55.906Z,7600
2017-07-02T09:06:36.639Z,7504
2017-07-02T09:07:17.066Z,7244
2017-07-02T09:07:57.598Z,6756
2017-07-02T09:08:38.436Z,5960
2017-07-02T09:09:18.839Z,6004
2017-07-02T09:09:59.343Z,5304
2017-07-02T09:10:40.026Z,5696
2017-07-02T09:11:22.434Z,5992
2017-07-02T09:13:55.017Z,4164
2017-07-02T09:14:37.062Z,4108
2017-07-02T09:15:18.968Z,4248
2017-07-02T09:16:02.374Z,4664
2017-07-02T09:16:42.688Z,5076
2017-07-02T09:17:23.509Z,5836
2017-07-02T09:19:55.519Z,9992
2017-07-02T09:20:38.584Z,10272
2017-07-02T09:21:21.082Z,10396
2017-07-02T09:22:01.794Z,10316
2017-07-02T09:22:43.827Z,10188
2017-07-02T09:23:30.641Z,10072
2017-07-02T09:24:13.416Z,9724
2017-07-02T09:24:56.733Z,9360
2017-07-02T09:25:38.252Z,8920
2017-07-02T09:26:19.359Z,8740
2017-07-02T09:27:00.229Z,8444
2017-07-02T09:27:43.237Z,7876
2017-07-02T09:29:58.122Z,4936
2017-07-02T09:30:38.825Z,4996
2017-07-02T09:31:21.042Z,4844
2017-07-02T09:32:02.544Z,5016
2017-07-02T09:32:45.569Z,5240
2017-07-02T09:33:27.393Z,6076
2017-07-02T09:34:08.605Z,7184
2017-07-02T09:34:52.037Z,8024
2017-07-02T09:35:33.545Z,8492
2017-07-02T09:38:53.068Z,8664
2017-07-02T09:39:33.914Z,9152
2017-07-02T09:40:14.575Z,9412
2017-07-02T09:41:52.308Z,9380
2017-07-02T09:42:33.236Z,9324
2017-07-02T09:43:15.874Z,9680
2017-07-02T09:43:59.502Z,9744
2017-07-02T09:44:40.710Z,9420
2017-07-02T09:45:24.027Z,9360
2017-07-02T09:46:05.787Z,9284
2017-07-02T09:46:47.685Z,9564
2017-07-02T09:47:30.915Z,9760
2017-07-02T09:48:13.395Z,9700
2017-07-02T09:48:56.214Z,9612
2017-07-02T09:49:39.440Z,9508
2017-07-02T09:50:20.300Z,9424